Aérodrome :
LOGIN :

S'inscrire | Disclaimer

   EN    FR    IT 

 










Légende :    VFR   VFR Marginal   IFR   IFR Intensif   IFR Très Intensif
Visi : 
Plafond : 
>= 8 km
>= 3000ft
5 à 8 km
1000 à 3000 ft
1500m à 5 km
500 à 1000 ft
800 à 1500m
200 à 500 ft
< 800m
< 200 ft
Symboles :   Orages  Brouillard  Fortes neiges  Fortes précipitations  Vent > 20 kt
SIGMETs :   Divers  Orages  Givrage  Turbulence  Onde Orograph.  Cendres Volcan.







- Altitude de l'aérodrome : 288 ft
- Code IATA : BZZ


EGVN - RAF Brize Norton

DERNIER METAR :
  • 200750Z 05002KT 3500 BR FEW025 M01/M01 Q1015 YLO1 BECMG 5000 WHT

METARs EXPIRÉS :
  • 200650Z 03005KT 2500 BR FEW025 M01/M01 Q1014 YLO1 TEMPO 1500 SCT002 AMB
  • 200636Z 04006KT 2500 BR FEW002 M00/M01 Q1014 YLO1 TEMPO 1500 SCT002 AMB
  • 200550Z 05004KT 4000 BR FEW012 00/M00 Q1013 GRN TEMPO SCT012 GRN

TAF TAF EGVN
Valide du 20 à 09h jusqu'au 21 à 09h UTC


200741Z 2009/2109 VRB05KT 9999 FEW025
TEMPO 2009/2024 SCT012
PROB30
TEMPO 2009/2011 5000 BR
BECMG 2016/2019 5000 BR
BECMG 2021/2023 3000
TEMPO 2100/2106 SCT004
PROB30 2102/2108 0500 FG BKN000
PROB30
TEMPO 2103/2108 FZFG
Pas de NOTAMs connus pour ce terrain.



MET'MAP, la Météo Aéronautique d'un coup d'oeil ! - Copyright ORBIFLY Décembre 2007 - Disclaimer

ORBIFLY MET'MAP TEAM :

Programmation & Développement : Alexandra Zaïnal
Conception & Développement : Baudouin d'Aumeries
Co-Programmation & Développement : Marc-Olivier Méhu
Soutien technique & logistique : Manuel Goepfert

Contact : metmap@orbifly.com




SOURCES & CREDITS :

   NOAA